sensor_id;sensor_type;location;lat;lon;timestamp;P1;durP1;ratioP1;P2;durP2;ratioP2
12412;SDS011;13877;18.896;-99.222;2023-09-08T00:00:33;10.25;;;5.25;;
12412;SDS011;13877;18.896;-99.222;2023-09-08T00:03:00;12.10;;;6.00;;
12412;SDS011;13877;18.896;-99.222;2023-09-08T00:05:28;12.60;;;5.85;;
12412;SDS011;13877;18.896;-99.222;2023-09-08T00:07:55;8.63;;;5.45;;
12412;SDS011;13877;18.896;-99.222;2023-09-08T00:10:21;8.63;;;5.20;;
12412;SDS011;13877;18.896;-99.222;2023-09-08T00:12:48;16.08;;;6.45;;
12412;SDS011;13877;18.896;-99.222;2023-09-08T00:15:15;14.30;;;6.10;;
12412;SDS011;13877;18.896;-99.222;2023-09-08T00:17:42;11.93;;;5.75;;
12412;SDS011;13877;18.896;-99.222;2023-09-08T00:20:09;13.13;;;5.45;;
12412;SDS011;13877;18.896;-99.222;2023-09-08T00:22:37;12.95;;;6.10;;
12412;SDS011;13877;18.896;-99.222;2023-09-08T00:25:04;10.43;;;6.32;;
12412;SDS011;13877;18.896;-99.222;2023-09-08T00:27:31;12.35;;;6.00;;
12412;SDS011;13877;18.896;-99.222;2023-09-08T00:29:58;10.02;;;5.75;;
12412;SDS011;13877;18.896;-99.222;2023-09-08T00:32:27;9.38;;;5.80;;
12412;SDS011;13877;18.896;-99.222;2023-09-08T00:34:54;20.92;;;6.75;;
12412;SDS011;13877;18.896;-99.222;2023-09-08T00:37:21;11.25;;;6.78;;
12412;SDS011;13877;18.896;-99.222;2023-09-08T00:39:47;13.55;;;6.95;;
12412;SDS011;13877;18.896;-99.222;2023-09-08T00:42:14;16.08;;;7.00;;
12412;SDS011;13877;18.896;-99.222;2023-09-08T00:44:41;16.40;;;7.45;;
12412;SDS011;13877;18.896;-99.222;2023-09-08T00:47:08;18.40;;;9.00;;
12412;SDS011;13877;18.896;-99.222;2023-09-08T00:49:35;25.33;;;9.65;;
12412;SDS011;13877;18.896;-99.222;2023-09-08T00:52:01;24.35;;;8.95;;
12412;SDS011;13877;18.896;-99.222;2023-09-08T00:54:29;29.92;;;10.73;;
12412;SDS011;13877;18.896;-99.222;2023-09-08T00:56:56;22.38;;;10.25;;
12412;SDS011;13877;18.896;-99.222;2023-09-08T00:59:23;30.02;;;10.93;;
12412;SDS011;13877;18.896;-99.222;2023-09-08T01:01:51;26.48;;;10.80;;
12412;SDS011;13877;18.896;-99.222;2023-09-08T01:04:18;22.42;;;9.88;;
12412;SDS011;13877;18.896;-99.222;2023-09-08T01:06:46;23.83;;;11.05;;
12412;SDS011;13877;18.896;-99.222;2023-09-08T01:09:14;32.53;;;12.93;;
12412;SDS011;13877;18.896;-99.222;2023-09-08T01:11:41;24.42;;;11.35;;
12412;SDS011;13877;18.896;-99.222;2023-09-08T01:14:08;34.58;;;11.65;;
12412;SDS011;13877;18.896;-99.222;2023-09-08T01:16:39;31.42;;;13.02;;
12412;SDS011;13877;18.896;-99.222;2023-09-08T01:19:07;26.77;;;13.40;;
12412;SDS011;13877;18.896;-99.222;2023-09-08T01:27:20;30.35;;;14.75;;
12412;SDS011;13877;18.896;-99.222;2023-09-08T01:29:51;37.05;;;15.40;;
12412;SDS011;13877;18.896;-99.222;2023-09-08T01:32:19;32.80;;;15.20;;
12412;SDS011;13877;18.896;-99.222;2023-09-08T01:34:47;38.28;;;17.38;;
12412;SDS011;13877;18.896;-99.222;2023-09-08T01:37:14;44.03;;;18.65;;
12412;SDS011;13877;18.896;-99.222;2023-09-08T01:39:41;40.63;;;19.45;;
12412;SDS011;13877;18.896;-99.222;2023-09-08T01:42:08;43.08;;;19.08;;
12412;SDS011;13877;18.896;-99.222;2023-09-08T01:44:35;45.10;;;21.77;;
12412;SDS011;13877;18.896;-99.222;2023-09-08T01:47:01;44.38;;;19.90;;
12412;SDS011;13877;18.896;-99.222;2023-09-08T01:49:28;39.92;;;20.13;;
12412;SDS011;13877;18.896;-99.222;2023-09-08T01:51:55;43.28;;;18.25;;
12412;SDS011;13877;18.896;-99.222;2023-09-08T01:54:22;33.17;;;17.45;;
12412;SDS011;13877;18.896;-99.222;2023-09-08T01:56:49;35.75;;;16.67;;
12412;SDS011;13877;18.896;-99.222;2023-09-08T01:59:17;31.27;;;13.55;;
12412;SDS011;13877;18.896;-99.222;2023-09-08T02:01:44;30.38;;;13.88;;
12412;SDS011;13877;18.896;-99.222;2023-09-08T02:04:10;31.50;;;13.75;;
12412;SDS011;13877;18.896;-99.222;2023-09-08T02:06:37;31.15;;;15.18;;
12412;SDS011;13877;18.896;-99.222;2023-09-08T02:09:04;34.13;;;14.82;;
12412;SDS011;13877;18.896;-99.222;2023-09-08T02:11:31;28.50;;;14.63;;
12412;SDS011;13877;18.896;-99.222;2023-09-08T02:13:58;36.50;;;15.77;;
12412;SDS011;13877;18.896;-99.222;2023-09-08T02:16:25;31.90;;;15.95;;
12412;SDS011;13877;18.896;-99.222;2023-09-08T02:18:52;41.30;;;17.15;;
12412;SDS011;13877;18.896;-99.222;2023-09-08T02:21:19;32.60;;;16.38;;
12412;SDS011;13877;18.896;-99.222;2023-09-08T02:23:47;38.22;;;16.95;;
12412;SDS011;13877;18.896;-99.222;2023-09-08T02:26:13;41.45;;;17.95;;
12412;SDS011;13877;18.896;-99.222;2023-09-08T02:28:40;37.00;;;17.77;;
12412;SDS011;13877;18.896;-99.222;2023-09-08T02:31:07;41.90;;;18.48;;
12412;SDS011;13877;18.896;-99.222;2023-09-08T02:33:34;44.03;;;20.95;;
12412;SDS011;13877;18.896;-99.222;2023-09-08T02:36:04;47.03;;;20.73;;
12412;SDS011;13877;18.896;-99.222;2023-09-08T02:40:59;47.72;;;21.05;;
12412;SDS011;13877;18.896;-99.222;2023-09-08T02:43:26;41.90;;;19.88;;
12412;SDS011;13877;18.896;-99.222;2023-09-08T02:45:53;55.90;;;20.98;;
12412;SDS011;13877;18.896;-99.222;2023-09-08T02:48:20;50.80;;;21.38;;
12412;SDS011;13877;18.896;-99.222;2023-09-08T02:50:47;47.78;;;22.83;;
12412;SDS011;13877;18.896;-99.222;2023-09-08T02:53:14;50.40;;;21.08;;
12412;SDS011;13877;18.896;-99.222;2023-09-08T02:55:40;57.55;;;24.38;;
12412;SDS011;13877;18.896;-99.222;2023-09-08T02:58:08;49.28;;;23.65;;
12412;SDS011;13877;18.896;-99.222;2023-09-08T03:00:34;50.97;;;23.88;;
12412;SDS011;13877;18.896;-99.222;2023-09-08T03:03:01;48.45;;;22.95;;
12412;SDS011;13877;18.896;-99.222;2023-09-08T03:05:28;56.75;;;26.08;;
12412;SDS011;13877;18.896;-99.222;2023-09-08T03:07:55;47.00;;;25.10;;
12412;SDS011;13877;18.896;-99.222;2023-09-08T03:10:22;46.47;;;22.90;;
12412;SDS011;13877;18.896;-99.222;2023-09-08T03:12:48;52.97;;;22.67;;
12412;SDS011;13877;18.896;-99.222;2023-09-08T03:15:15;44.50;;;20.35;;
12412;SDS011;13877;18.896;-99.222;2023-09-08T03:17:43;36.97;;;18.30;;
12412;SDS011;13877;18.896;-99.222;2023-09-08T03:20:10;36.03;;;17.30;;
12412;SDS011;13877;18.896;-99.222;2023-09-08T03:22:39;36.35;;;16.85;;
12412;SDS011;13877;18.896;-99.222;2023-09-08T03:25:05;43.28;;;17.30;;
12412;SDS011;13877;18.896;-99.222;2023-09-08T03:27:32;34.22;;;16.88;;
12412;SDS011;13877;18.896;-99.222;2023-09-08T03:29:59;35.55;;;16.15;;
12412;SDS011;13877;18.896;-99.222;2023-09-08T03:32:26;39.60;;;16.13;;
12412;SDS011;13877;18.896;-99.222;2023-09-08T03:34:54;42.72;;;16.27;;
12412;SDS011;13877;18.896;-99.222;2023-09-08T03:37:21;45.58;;;16.88;;
12412;SDS011;13877;18.896;-99.222;2023-09-08T03:39:48;35.13;;;17.65;;
12412;SDS011;13877;18.896;-99.222;2023-09-08T03:42:15;35.17;;;16.60;;
12412;SDS011;13877;18.896;-99.222;2023-09-08T03:44:42;37.05;;;18.33;;
12412;SDS011;13877;18.896;-99.222;2023-09-08T03:47:09;37.83;;;18.92;;
12412;SDS011;13877;18.896;-99.222;2023-09-08T03:49:36;45.13;;;20.20;;
12412;SDS011;13877;18.896;-99.222;2023-09-08T03:52:02;46.40;;;20.48;;
12412;SDS011;13877;18.896;-99.222;2023-09-08T03:54:30;40.42;;;18.75;;
12412;SDS011;13877;18.896;-99.222;2023-09-08T03:56:56;39.10;;;19.67;;
12412;SDS011;13877;18.896;-99.222;2023-09-08T03:59:23;47.63;;;23.05;;
12412;SDS011;13877;18.896;-99.222;2023-09-08T04:01:50;47.15;;;21.27;;
12412;SDS011;13877;18.896;-99.222;2023-09-08T04:04:17;43.20;;;20.70;;
12412;SDS011;13877;18.896;-99.222;2023-09-08T04:06:45;42.15;;;20.25;;
12412;SDS011;13877;18.896;-99.222;2023-09-08T04:09:13;33.80;;;17.65;;
12412;SDS011;13877;18.896;-99.222;2023-09-08T04:11:40;36.70;;;19.90;;
12412;SDS011;13877;18.896;-99.222;2023-09-08T04:14:07;43.45;;;24.25;;
12412;SDS011;13877;18.896;-99.222;2023-09-08T04:16:34;43.85;;;22.60;;
12412;SDS011;13877;18.896;-99.222;2023-09-08T04:19:01;46.08;;;25.25;;
12412;SDS011;13877;18.896;-99.222;2023-09-08T04:21:28;51.83;;;27.08;;
12412;SDS011;13877;18.896;-99.222;2023-09-08T04:23:55;50.45;;;26.30;;
12412;SDS011;13877;18.896;-99.222;2023-09-08T04:26:22;64.75;;;29.88;;
12412;SDS011;13877;18.896;-99.222;2023-09-08T04:28:49;50.85;;;26.77;;
12412;SDS011;13877;18.896;-99.222;2023-09-08T04:31:16;49.42;;;26.52;;
12412;SDS011;13877;18.896;-99.222;2023-09-08T04:33:43;57.03;;;27.33;;
12412;SDS011;13877;18.896;-99.222;2023-09-08T04:36:10;47.80;;;24.50;;
12412;SDS011;13877;18.896;-99.222;2023-09-08T04:38:39;47.17;;;23.10;;
12412;SDS011;13877;18.896;-99.222;2023-09-08T04:41:09;48.42;;;21.30;;
12412;SDS011;13877;18.896;-99.222;2023-09-08T04:43:36;43.70;;;20.50;;
12412;SDS011;13877;18.896;-99.222;2023-09-08T04:46:02;38.65;;;18.30;;
12412;SDS011;13877;18.896;-99.222;2023-09-08T04:48:30;38.60;;;16.73;;
12412;SDS011;13877;18.896;-99.222;2023-09-08T04:50:57;39.88;;;16.30;;
12412;SDS011;13877;18.896;-99.222;2023-09-08T04:53:24;35.10;;;16.65;;
12412;SDS011;13877;18.896;-99.222;2023-09-08T04:55:51;35.65;;;14.63;;
12412;SDS011;13877;18.896;-99.222;2023-09-08T04:58:18;30.95;;;14.18;;
12412;SDS011;13877;18.896;-99.222;2023-09-08T05:00:45;37.72;;;14.35;;
12412;SDS011;13877;18.896;-99.222;2023-09-08T05:03:12;30.95;;;14.38;;
12412;SDS011;13877;18.896;-99.222;2023-09-08T05:05:38;33.70;;;14.30;;
12412;SDS011;13877;18.896;-99.222;2023-09-08T05:08:05;30.63;;;13.40;;
12412;SDS011;13877;18.896;-99.222;2023-09-08T05:10:32;24.58;;;12.75;;
12412;SDS011;13877;18.896;-99.222;2023-09-08T05:12:59;27.77;;;12.30;;
12412;SDS011;13877;18.896;-99.222;2023-09-08T05:15:27;21.95;;;11.88;;
12412;SDS011;13877;18.896;-99.222;2023-09-08T05:17:54;30.48;;;12.57;;
12412;SDS011;13877;18.896;-99.222;2023-09-08T05:20:25;23.25;;;11.70;;
12412;SDS011;13877;18.896;-99.222;2023-09-08T05:22:52;22.98;;;11.27;;
12412;SDS011;13877;18.896;-99.222;2023-09-08T05:25:19;29.88;;;12.48;;
12412;SDS011;13877;18.896;-99.222;2023-09-08T05:27:46;26.98;;;12.35;;
12412;SDS011;13877;18.896;-99.222;2023-09-08T05:30:15;26.73;;;13.10;;
12412;SDS011;13877;18.896;-99.222;2023-09-08T05:32:42;30.30;;;14.73;;
12412;SDS011;13877;18.896;-99.222;2023-09-08T05:35:08;29.90;;;15.65;;
12412;SDS011;13877;18.896;-99.222;2023-09-08T05:37:36;30.73;;;13.82;;
12412;SDS011;13877;18.896;-99.222;2023-09-08T05:40:02;34.22;;;13.82;;
12412;SDS011;13877;18.896;-99.222;2023-09-08T05:42:30;34.20;;;14.75;;
12412;SDS011;13877;18.896;-99.222;2023-09-08T05:44:57;32.10;;;14.55;;
12412;SDS011;13877;18.896;-99.222;2023-09-08T05:47:24;31.35;;;14.30;;
12412;SDS011;13877;18.896;-99.222;2023-09-08T05:49:51;31.02;;;15.23;;
12412;SDS011;13877;18.896;-99.222;2023-09-08T05:52:18;32.55;;;16.02;;
12412;SDS011;13877;18.896;-99.222;2023-09-08T05:54:46;32.65;;;14.50;;
12412;SDS011;13877;18.896;-99.222;2023-09-08T05:57:13;36.53;;;15.38;;
12412;SDS011;13877;18.896;-99.222;2023-09-08T05:59:39;38.00;;;16.10;;
12412;SDS011;13877;18.896;-99.222;2023-09-08T06:02:06;39.20;;;16.45;;
12412;SDS011;13877;18.896;-99.222;2023-09-08T06:04:33;37.90;;;16.25;;
12412;SDS011;13877;18.896;-99.222;2023-09-08T06:07:01;43.58;;;17.05;;
12412;SDS011;13877;18.896;-99.222;2023-09-08T06:09:30;34.60;;;15.77;;
12412;SDS011;13877;18.896;-99.222;2023-09-08T06:11:58;37.55;;;16.20;;
12412;SDS011;13877;18.896;-99.222;2023-09-08T06:14:25;37.70;;;18.20;;
12412;SDS011;13877;18.896;-99.222;2023-09-08T06:16:51;38.47;;;16.70;;
12412;SDS011;13877;18.896;-99.222;2023-09-08T06:19:18;42.15;;;17.58;;
12412;SDS011;13877;18.896;-99.222;2023-09-08T06:21:45;37.17;;;16.85;;
12412;SDS011;13877;18.896;-99.222;2023-09-08T06:24:12;45.40;;;18.17;;
12412;SDS011;13877;18.896;-99.222;2023-09-08T06:26:39;41.20;;;17.58;;
12412;SDS011;13877;18.896;-99.222;2023-09-08T06:29:06;41.03;;;17.05;;
12412;SDS011;13877;18.896;-99.222;2023-09-08T06:31:34;43.92;;;17.52;;
12412;SDS011;13877;18.896;-99.222;2023-09-08T06:34:01;39.25;;;17.73;;
12412;SDS011;13877;18.896;-99.222;2023-09-08T06:36:28;45.10;;;17.38;;
12412;SDS011;13877;18.896;-99.222;2023-09-08T06:41:56;45.33;;;18.63;;
12412;SDS011;13877;18.896;-99.222;2023-09-08T06:44:23;42.40;;;16.85;;
12412;SDS011;13877;18.896;-99.222;2023-09-08T06:46:50;34.72;;;16.25;;
12412;SDS011;13877;18.896;-99.222;2023-09-08T06:49:17;41.90;;;16.90;;
12412;SDS011;13877;18.896;-99.222;2023-09-08T06:51:45;40.63;;;17.77;;
12412;SDS011;13877;18.896;-99.222;2023-09-08T06:54:14;38.25;;;16.88;;
12412;SDS011;13877;18.896;-99.222;2023-09-08T06:56:43;40.65;;;19.25;;
12412;SDS011;13877;18.896;-99.222;2023-09-08T06:59:10;40.45;;;17.70;;
12412;SDS011;13877;18.896;-99.222;2023-09-08T07:01:37;43.80;;;17.98;;
12412;SDS011;13877;18.896;-99.222;2023-09-08T07:04:04;34.60;;;17.42;;
12412;SDS011;13877;18.896;-99.222;2023-09-08T07:06:32;41.13;;;18.67;;
12412;SDS011;13877;18.896;-99.222;2023-09-08T07:09:00;45.65;;;21.02;;
12412;SDS011;13877;18.896;-99.222;2023-09-08T07:11:28;45.95;;;19.27;;
12412;SDS011;13877;18.896;-99.222;2023-09-08T07:13:56;36.15;;;19.35;;
12412;SDS011;13877;18.896;-99.222;2023-09-08T07:16:23;37.95;;;18.00;;
12412;SDS011;13877;18.896;-99.222;2023-09-08T07:18:49;32.30;;;17.05;;
12412;SDS011;13877;18.896;-99.222;2023-09-08T07:21:16;40.67;;;17.70;;
12412;SDS011;13877;18.896;-99.222;2023-09-08T07:23:44;39.95;;;19.45;;
12412;SDS011;13877;18.896;-99.222;2023-09-08T07:26:12;50.03;;;22.23;;
12412;SDS011;13877;18.896;-99.222;2023-09-08T07:28:39;41.50;;;19.02;;
12412;SDS011;13877;18.896;-99.222;2023-09-08T07:31:10;46.95;;;20.48;;
12412;SDS011;13877;18.896;-99.222;2023-09-08T07:33:41;51.00;;;19.30;;
12412;SDS011;13877;18.896;-99.222;2023-09-08T07:36:08;53.45;;;21.08;;
12412;SDS011;13877;18.896;-99.222;2023-09-08T07:38:37;51.38;;;22.40;;
12412;SDS011;13877;18.896;-99.222;2023-09-08T07:41:05;49.45;;;22.23;;
12412;SDS011;13877;18.896;-99.222;2023-09-08T07:43:32;47.83;;;21.92;;
12412;SDS011;13877;18.896;-99.222;2023-09-08T07:45:59;55.10;;;23.52;;
12412;SDS011;13877;18.896;-99.222;2023-09-08T07:48:26;65.35;;;23.88;;
12412;SDS011;13877;18.896;-99.222;2023-09-08T07:50:52;56.50;;;22.88;;
12412;SDS011;13877;18.896;-99.222;2023-09-08T07:53:24;60.20;;;25.00;;
12412;SDS011;13877;18.896;-99.222;2023-09-08T07:55:51;57.78;;;24.20;;
12412;SDS011;13877;18.896;-99.222;2023-09-08T07:58:18;64.10;;;28.08;;
12412;SDS011;13877;18.896;-99.222;2023-09-08T08:00:44;62.83;;;26.35;;
12412;SDS011;13877;18.896;-99.222;2023-09-08T08:03:11;65.88;;;27.55;;
12412;SDS011;13877;18.896;-99.222;2023-09-08T08:05:38;73.13;;;28.98;;
12412;SDS011;13877;18.896;-99.222;2023-09-08T08:08:05;75.13;;;28.60;;
12412;SDS011;13877;18.896;-99.222;2023-09-08T08:10:32;73.40;;;28.58;;
12412;SDS011;13877;18.896;-99.222;2023-09-08T08:12:59;77.68;;;29.40;;
12412;SDS011;13877;18.896;-99.222;2023-09-08T08:15:35;69.07;;;27.80;;
12412;SDS011;13877;18.896;-99.222;2023-09-08T08:18:07;67.97;;;25.98;;
12412;SDS011;13877;18.896;-99.222;2023-09-08T08:20:37;76.25;;;28.85;;
12412;SDS011;13877;18.896;-99.222;2023-09-08T08:23:05;68.07;;;28.05;;
12412;SDS011;13877;18.896;-99.222;2023-09-08T08:25:32;71.25;;;28.45;;
12412;SDS011;13877;18.896;-99.222;2023-09-08T08:27:59;70.70;;;27.05;;
12412;SDS011;13877;18.896;-99.222;2023-09-08T08:30:27;71.10;;;28.60;;
12412;SDS011;13877;18.896;-99.222;2023-09-08T08:32:54;82.30;;;30.20;;
12412;SDS011;13877;18.896;-99.222;2023-09-08T08:35:21;71.93;;;27.40;;
12412;SDS011;13877;18.896;-99.222;2023-09-08T08:37:47;64.75;;;25.52;;
12412;SDS011;13877;18.896;-99.222;2023-09-08T08:40:14;71.03;;;25.20;;
12412;SDS011;13877;18.896;-99.222;2023-09-08T08:42:41;58.97;;;22.85;;
12412;SDS011;13877;18.896;-99.222;2023-09-08T08:45:10;56.40;;;22.35;;
12412;SDS011;13877;18.896;-99.222;2023-09-08T08:47:40;51.05;;;21.85;;
12412;SDS011;13877;18.896;-99.222;2023-09-08T08:50:08;41.13;;;18.38;;
12412;SDS011;13877;18.896;-99.222;2023-09-08T08:52:37;43.20;;;18.80;;
12412;SDS011;13877;18.896;-99.222;2023-09-08T08:55:06;42.22;;;18.48;;
12412;SDS011;13877;18.896;-99.222;2023-09-08T08:57:34;44.35;;;19.30;;
12412;SDS011;13877;18.896;-99.222;2023-09-08T09:00:07;40.60;;;18.27;;
12412;SDS011;13877;18.896;-99.222;2023-09-08T09:02:40;41.38;;;17.20;;
12412;SDS011;13877;18.896;-99.222;2023-09-08T09:05:09;39.50;;;16.30;;
12412;SDS011;13877;18.896;-99.222;2023-09-08T09:07:41;35.13;;;15.68;;
12412;SDS011;13877;18.896;-99.222;2023-09-08T09:10:09;35.33;;;15.68;;
12412;SDS011;13877;18.896;-99.222;2023-09-08T09:12:37;33.65;;;14.70;;
12412;SDS011;13877;18.896;-99.222;2023-09-08T09:15:04;32.67;;;14.15;;
12412;SDS011;13877;18.896;-99.222;2023-09-08T09:17:35;33.83;;;13.15;;
12412;SDS011;13877;18.896;-99.222;2023-09-08T09:20:12;31.75;;;13.85;;
12412;SDS011;13877;18.896;-99.222;2023-09-08T09:22:48;29.75;;;13.80;;
12412;SDS011;13877;18.896;-99.222;2023-09-08T09:25:22;32.13;;;13.40;;
12412;SDS011;13877;18.896;-99.222;2023-09-08T09:27:54;30.90;;;13.93;;
12412;SDS011;13877;18.896;-99.222;2023-09-08T09:30:25;30.98;;;14.55;;
12412;SDS011;13877;18.896;-99.222;2023-09-08T09:32:59;33.78;;;14.68;;
12412;SDS011;13877;18.896;-99.222;2023-09-08T09:38:08;33.85;;;15.45;;
12412;SDS011;13877;18.896;-99.222;2023-09-08T09:40:35;30.38;;;14.25;;
12412;SDS011;13877;18.896;-99.222;2023-09-08T09:43:04;31.70;;;14.63;;
12412;SDS011;13877;18.896;-99.222;2023-09-08T09:45:35;26.80;;;13.15;;
12412;SDS011;13877;18.896;-99.222;2023-09-08T09:48:02;34.95;;;13.77;;
12412;SDS011;13877;18.896;-99.222;2023-09-08T09:50:31;29.95;;;12.85;;
12412;SDS011;13877;18.896;-99.222;2023-09-08T09:53:12;26.42;;;12.57;;
12412;SDS011;13877;18.896;-99.222;2023-09-08T09:55:45;29.35;;;12.20;;
12412;SDS011;13877;18.896;-99.222;2023-09-08T09:58:12;31.48;;;13.35;;
12412;SDS011;13877;18.896;-99.222;2023-09-08T10:00:40;23.60;;;12.35;;
12412;SDS011;13877;18.896;-99.222;2023-09-08T10:03:07;30.30;;;12.27;;
12412;SDS011;13877;18.896;-99.222;2023-09-08T10:05:34;31.38;;;13.90;;
12412;SDS011;13877;18.896;-99.222;2023-09-08T10:08:01;30.85;;;14.25;;
12412;SDS011;13877;18.896;-99.222;2023-09-08T10:10:28;30.88;;;13.32;;
12412;SDS011;13877;18.896;-99.222;2023-09-08T10:13:04;30.02;;;13.57;;
12412;SDS011;13877;18.896;-99.222;2023-09-08T10:15:35;36.25;;;13.60;;
12412;SDS011;13877;18.896;-99.222;2023-09-08T10:18:04;39.33;;;15.20;;
12412;SDS011;13877;18.896;-99.222;2023-09-08T10:20:31;34.67;;;14.88;;
12412;SDS011;13877;18.896;-99.222;2023-09-08T10:23:13;31.73;;;14.32;;
12412;SDS011;13877;18.896;-99.222;2023-09-08T10:25:48;31.90;;;13.35;;
12412;SDS011;13877;18.896;-99.222;2023-09-08T10:28:23;35.10;;;13.35;;
12412;SDS011;13877;18.896;-99.222;2023-09-08T10:30:51;31.65;;;14.23;;
12412;SDS011;13877;18.896;-99.222;2023-09-08T10:33:18;32.25;;;12.32;;
12412;SDS011;13877;18.896;-99.222;2023-09-08T10:38:40;32.53;;;13.77;;
12412;SDS011;13877;18.896;-99.222;2023-09-08T10:43:46;32.67;;;14.23;;
12412;SDS011;13877;18.896;-99.222;2023-09-08T10:46:23;35.40;;;14.18;;
12412;SDS011;13877;18.896;-99.222;2023-09-08T10:49:00;37.83;;;14.90;;
12412;SDS011;13877;18.896;-99.222;2023-09-08T10:51:33;38.88;;;14.40;;
12412;SDS011;13877;18.896;-99.222;2023-09-08T10:54:00;37.53;;;15.60;;
12412;SDS011;13877;18.896;-99.222;2023-09-08T10:56:47;36.95;;;14.32;;
12412;SDS011;13877;18.896;-99.222;2023-09-08T10:59:19;41.88;;;15.93;;
12412;SDS011;13877;18.896;-99.222;2023-09-08T11:01:47;38.95;;;14.88;;
12412;SDS011;13877;18.896;-99.222;2023-09-08T11:04:14;45.15;;;16.98;;
12412;SDS011;13877;18.896;-99.222;2023-09-08T11:06:44;37.83;;;15.27;;
12412;SDS011;13877;18.896;-99.222;2023-09-08T11:09:11;40.92;;;16.98;;
12412;SDS011;13877;18.896;-99.222;2023-09-08T11:11:37;37.22;;;13.98;;
12412;SDS011;13877;18.896;-99.222;2023-09-08T11:14:05;45.63;;;15.80;;
12412;SDS011;13877;18.896;-99.222;2023-09-08T11:16:31;49.67;;;18.00;;
12412;SDS011;13877;18.896;-99.222;2023-09-08T11:18:58;45.67;;;17.13;;
12412;SDS011;13877;18.896;-99.222;2023-09-08T11:24:03;47.00;;;15.77;;
12412;SDS011;13877;18.896;-99.222;2023-09-08T11:26:34;46.17;;;17.80;;
12412;SDS011;13877;18.896;-99.222;2023-09-08T11:29:01;46.50;;;16.98;;
12412;SDS011;13877;18.896;-99.222;2023-09-08T11:31:29;56.55;;;18.58;;
12412;SDS011;13877;18.896;-99.222;2023-09-08T11:33:56;46.33;;;18.40;;
12412;SDS011;13877;18.896;-99.222;2023-09-08T11:36:23;54.25;;;19.25;;
12412;SDS011;13877;18.896;-99.222;2023-09-08T11:38:51;61.05;;;18.58;;
12412;SDS011;13877;18.896;-99.222;2023-09-08T11:41:18;52.10;;;18.58;;
12412;SDS011;13877;18.896;-99.222;2023-09-08T11:43:49;56.07;;;17.77;;
12412;SDS011;13877;18.896;-99.222;2023-09-08T11:46:16;63.45;;;19.55;;
12412;SDS011;13877;18.896;-99.222;2023-09-08T11:48:44;57.70;;;20.02;;
12412;SDS011;13877;18.896;-99.222;2023-09-08T11:51:11;55.17;;;19.27;;
12412;SDS011;13877;18.896;-99.222;2023-09-08T11:53:38;59.53;;;20.05;;
12412;SDS011;13877;18.896;-99.222;2023-09-08T11:56:05;55.03;;;19.25;;
12412;SDS011;13877;18.896;-99.222;2023-09-08T11:58:32;58.33;;;18.88;;
12412;SDS011;13877;18.896;-99.222;2023-09-08T12:01:00;63.90;;;20.13;;
12412;SDS011;13877;18.896;-99.222;2023-09-08T12:03:29;70.25;;;20.25;;
12412;SDS011;13877;18.896;-99.222;2023-09-08T12:05:55;59.75;;;21.00;;
12412;SDS011;13877;18.896;-99.222;2023-09-08T12:08:24;57.47;;;20.08;;
12412;SDS011;13877;18.896;-99.222;2023-09-08T12:10:53;54.60;;;19.17;;
12412;SDS011;13877;18.896;-99.222;2023-09-08T12:13:21;59.50;;;19.02;;
12412;SDS011;13877;18.896;-99.222;2023-09-08T12:15:49;68.72;;;22.77;;
12412;SDS011;13877;18.896;-99.222;2023-09-08T12:18:16;61.10;;;21.85;;
12412;SDS011;13877;18.896;-99.222;2023-09-08T12:20:43;59.05;;;20.83;;
12412;SDS011;13877;18.896;-99.222;2023-09-08T12:23:17;57.95;;;22.42;;
12412;SDS011;13877;18.896;-99.222;2023-09-08T12:25:46;61.47;;;22.30;;
12412;SDS011;13877;18.896;-99.222;2023-09-08T12:28:15;60.38;;;20.52;;
12412;SDS011;13877;18.896;-99.222;2023-09-08T12:30:43;71.93;;;21.55;;
12412;SDS011;13877;18.896;-99.222;2023-09-08T12:33:10;74.53;;;23.50;;
12412;SDS011;13877;18.896;-99.222;2023-09-08T12:35:44;70.13;;;23.70;;
12412;SDS011;13877;18.896;-99.222;2023-09-08T12:38:11;75.00;;;24.23;;
12412;SDS011;13877;18.896;-99.222;2023-09-08T12:40:39;79.53;;;24.25;;
12412;SDS011;13877;18.896;-99.222;2023-09-08T12:43:06;76.18;;;24.88;;
12412;SDS011;13877;18.896;-99.222;2023-09-08T12:45:33;78.25;;;25.60;;
12412;SDS011;13877;18.896;-99.222;2023-09-08T12:48:00;66.78;;;22.70;;
12412;SDS011;13877;18.896;-99.222;2023-09-08T12:50:32;73.13;;;22.50;;
12412;SDS011;13877;18.896;-99.222;2023-09-08T12:52:59;67.28;;;23.00;;
12412;SDS011;13877;18.896;-99.222;2023-09-08T12:55:26;69.20;;;21.45;;
12412;SDS011;13877;18.896;-99.222;2023-09-08T12:57:52;61.20;;;22.58;;
12412;SDS011;13877;18.896;-99.222;2023-09-08T13:00:23;53.35;;;18.75;;
12412;SDS011;13877;18.896;-99.222;2023-09-08T13:02:50;45.38;;;16.83;;
12412;SDS011;13877;18.896;-99.222;2023-09-08T13:05:17;42.53;;;18.13;;
12412;SDS011;13877;18.896;-99.222;2023-09-08T13:07:44;41.83;;;19.42;;
12412;SDS011;13877;18.896;-99.222;2023-09-08T13:10:11;42.20;;;15.43;;
12412;SDS011;13877;18.896;-99.222;2023-09-08T13:12:37;35.65;;;16.02;;
12412;SDS011;13877;18.896;-99.222;2023-09-08T13:15:04;34.60;;;16.20;;
12412;SDS011;13877;18.896;-99.222;2023-09-08T13:17:32;34.75;;;14.73;;
12412;SDS011;13877;18.896;-99.222;2023-09-08T13:19:58;37.28;;;15.77;;
12412;SDS011;13877;18.896;-99.222;2023-09-08T13:22:25;44.17;;;18.58;;
12412;SDS011;13877;18.896;-99.222;2023-09-08T13:24:52;38.08;;;17.55;;
12412;SDS011;13877;18.896;-99.222;2023-09-08T13:27:19;42.78;;;19.10;;
12412;SDS011;13877;18.896;-99.222;2023-09-08T13:29:45;45.88;;;19.08;;
12412;SDS011;13877;18.896;-99.222;2023-09-08T13:32:12;39.00;;;17.98;;
12412;SDS011;13877;18.896;-99.222;2023-09-08T13:34:39;37.50;;;17.17;;
12412;SDS011;13877;18.896;-99.222;2023-09-08T13:37:06;37.10;;;16.48;;
12412;SDS011;13877;18.896;-99.222;2023-09-08T13:39:33;40.55;;;18.13;;
12412;SDS011;13877;18.896;-99.222;2023-09-08T13:42:01;38.35;;;17.38;;
12412;SDS011;13877;18.896;-99.222;2023-09-08T13:44:28;41.13;;;18.65;;
12412;SDS011;13877;18.896;-99.222;2023-09-08T13:46:55;37.30;;;17.20;;
12412;SDS011;13877;18.896;-99.222;2023-09-08T13:49:22;38.35;;;16.67;;
12412;SDS011;13877;18.896;-99.222;2023-09-08T13:51:49;35.22;;;16.95;;
12412;SDS011;13877;18.896;-99.222;2023-09-08T13:54:17;28.13;;;15.50;;
12412;SDS011;13877;18.896;-99.222;2023-09-08T13:56:44;30.15;;;14.95;;
12412;SDS011;13877;18.896;-99.222;2023-09-08T13:59:11;28.75;;;14.38;;
12412;SDS011;13877;18.896;-99.222;2023-09-08T14:01:38;30.58;;;13.30;;
12412;SDS011;13877;18.896;-99.222;2023-09-08T14:04:05;23.23;;;12.05;;
12412;SDS011;13877;18.896;-99.222;2023-09-08T14:06:32;28.73;;;12.52;;
12412;SDS011;13877;18.896;-99.222;2023-09-08T14:08:59;24.42;;;12.52;;
12412;SDS011;13877;18.896;-99.222;2023-09-08T14:11:26;24.95;;;11.18;;
12412;SDS011;13877;18.896;-99.222;2023-09-08T14:13:53;25.55;;;11.80;;
12412;SDS011;13877;18.896;-99.222;2023-09-08T14:16:20;33.00;;;12.63;;
12412;SDS011;13877;18.896;-99.222;2023-09-08T14:18:46;24.33;;;11.00;;
12412;SDS011;13877;18.896;-99.222;2023-09-08T14:21:13;22.75;;;11.18;;
12412;SDS011;13877;18.896;-99.222;2023-09-08T14:23:40;25.10;;;10.23;;